Latest Weather Observations for Strathalbyn

IDS60901

Issued at 10:11 pm CST Sunday 3 July 2022 (issued every 10 minutes, with the page automatically refreshed every 10 minutes)

About weather observations | Map of Adelaide area stations | Latest observations for Adelaide area | Other Formats
Station Details ID: 024580 Name: STRATHALBYN RACECOURSE Lat: -35.28 Lon: 138.89 Height: 58.0 m
Data from the previous 72 hours. | See also: Recent months at Strathalbyn
Date/Time
CST
Temp
°C
App
Temp
°C
Dew
Point
°C
Rel
Hum
%
Delta-T
°C
Wind Press
QNH
hPa
Press
MSL
hPa
Rain since
9am
mm
Dir  Spd
km/h
Gust
km/h
Spd
kts
Gust
kts
03/10:00pm 10.2 5.2 3.5 63 2.9 SSE 19 26 10 14 1028.6 1028.7 0.0
03/09:30pm 10.2 5.6 3.9 65 2.8 SSE 17 22 9 12 1028.6 1028.7 0.0
03/09:00pm 10.1 6.4 4.3 67 2.6 SSE 13 15 7 8 1028.7 1028.8 0.0
03/08:30pm 10.4 6.3 4.1 65 2.8 SSE 15 24 8 13 1028.7 1028.8 0.0
03/08:00pm 10.4 6.2 3.9 64 2.9 SSE 15 19 8 10 1028.8 1028.9 0.0
03/07:30pm 10.5 6.0 4.0 64 2.9 SSE 17 24 9 13 1028.7 1028.8 0.0
03/07:00pm 10.3 6.5 4.0 65 2.8 SSE 13 19 7 10 1028.6 1028.7 0.0
03/06:30pm 10.2 6.3 3.5 63 2.9 SE 13 19 7 10 1028.5 1028.6 0.0
03/06:00pm 10.2 5.2 3.7 64 2.8 SSE 19 24 10 13 1028.4 1028.5 0.0
03/05:30pm 10.5 6.4 4.4 66 2.7 SE 15 20 8 11 1028.2 1028.3 0.0
03/05:00pm 10.9 6.0 4.1 63 3.0 SSE 19 32 10 17 1028.0 1028.1 0.0
03/04:30pm 11.2 6.4 4.4 63 3.0 SSE 19 28 10 15 1027.9 1028.0 0.0
03/04:00pm 11.5 6.4 4.3 61 3.2 SSE 20 28 11 15 1027.8 1027.9 0.0
03/03:30pm 11.7 5.9 4.2 60 3.4 SSE 24 33 13 18 1027.6 1027.7 0.0
03/03:00pm 11.3 5.8 3.8 60 3.3 SSE 22 32 12 17 1027.7 1027.8 0.0
03/02:30pm 12.2 6.8 4.4 59 3.5 SSE 22 30 12 16 1027.6 1027.7 0.0
03/02:00pm 11.8 6.2 3.6 57 3.7 SSE 22 32 12 17 1027.8 1027.9 0.0
03/01:30pm 12.4 7.6 4.6 59 3.5 SSE 19 28 10 15 1027.9 1028.0 0.0
03/01:00pm 12.1 6.7 4.3 59 3.5 SSE 22 30 12 16 1028.4 1028.5 0.0
03/12:30pm 11.7 6.6 4.0 59 3.4 SSE 20 32 11 17 1029.0 1029.1 0.0
03/12:00pm 11.2 6.2 4.4 63 3.0 SSE 20 32 11 17 1029.6 1029.7 0.0
03/11:30am 11.2 5.8 4.4 63 3.0 SSE 22 35 12 19 1030.1 1030.2 0.0
03/11:00am 10.4 5.5 4.3 66 2.7 SE 19 28 10 15 1030.5 1030.6 0.0
03/10:30am 10.0 6.1 5.4 73 2.1 SE 15 20 8 11 1030.7 1030.8 0.0
03/10:00am 9.3 5.9 5.9 79 1.6 ESE 13 19 7 10 1030.9 1031.0 0.0
03/09:30am 8.7 6.1 6.3 85 1.1 E 9 11 5 6 1031.0 1031.1 0.0
03/09:00am 8.1 5.5 6.1 87 0.9 E 9 11 5 6 1030.7 1030.8 0.4
03/08:30am 7.8 5.2 6.1 89 0.8 E 9 13 5 7 1030.5 1030.6 0.4
03/08:00am 7.4 6.2 6.3 93 0.5 ESE 2 7 1 4 1030.2 1030.3 0.4
03/07:30am 7.4 5.9 6.7 95 0.3 NE 4 7 2 4 1030.1 1030.2 0.4
03/07:00am 7.4 5.3 6.7 95 0.3 ENE 7 11 4 6 1029.9 1030.0 0.4
03/06:30am 7.2 6.4 6.5 95 0.3 CALM 0 0 0 0 1029.8 1029.9 0.4
03/06:00am 7.2 6.4 6.5 95 0.3 CALM 0 0 0 0 1029.6 1029.7 0.4
03/05:30am 7.3 5.4 6.6 95 0.3 SSE 6 9 3 5 1029.3 1029.4 0.4
03/05:00am 7.3 5.2 6.6 95 0.3 S 7 9 4 5 1029.3 1029.4 0.4
03/04:30am 7.4 5.5 6.7 95 0.3 SE 6 9 3 5 1029.2 1029.3 0.4
03/04:00am 7.6 6.5 7.0 96 0.3 SSE 2 7 1 4 1029.2 1029.3 0.4
03/03:30am 7.4 6.6 6.7 95 0.3 CALM 0 0 0 0 1029.4 1029.5 0.4
03/03:00am 7.7 6.6 7.0 95 0.3 WSW 2 6 1 3 1029.6 1029.7 0.4
03/02:30am 7.7 5.9 7.0 95 0.3 WSW 6 9 3 5 1029.9 1030.0 0.4
03/02:00am 7.6 5.7 6.9 95 0.3 WNW 6 7 3 4 1030.0 1030.1 0.4
03/01:30am 7.6 5.6 6.9 95 0.3 NNW 7 7 4 4 1030.0 1030.1 0.4
03/01:00am 7.2 5.6 6.3 94 0.4 N 4 7 2 4 1030.1 1030.2 0.4
03/12:30am 6.9 5.6 6.0 94 0.4 NNE 2 7 1 4 1030.2 1030.3 0.4
03/12:00am 6.5 5.5 5.5 93 0.4 CALM 0 4 0 2 1030.3 1030.4 0.0
 
Date/Time
CST
Temp
°C
App
Temp
°C
Dew
Point
°C
Rel
Hum
%
Delta-T
°C
Wind Press
QNH
hPa
Press
MSL
hPa
Rain since
9am
mm
Dir  Spd
km/h
Gust
km/h
Spd
kts
Gust
kts
02/11:30pm 6.6 5.5 5.2 91 0.6 CALM 0 6 0 3 1030.3 1030.4 0.0
02/11:00pm 6.7 5.2 5.2 90 0.7 WSW 2 7 1 4 1030.4 1030.5 0.0
02/10:30pm 6.3 5.1 4.5 88 0.8 CALM 0 0 0 0 1030.5 1030.6 0.0
02/10:00pm 5.8 3.3 3.6 86 0.9 WSW 6 6 3 3 1030.6 1030.7 0.0
02/09:30pm 5.3 3.1 3.2 86 0.9 WSW 4 7 2 4 1030.7 1030.8 0.0
02/09:00pm 6.5 4.1 4.3 86 0.9 WSW 6 7 3 4 1030.7 1030.8 0.0
02/08:30pm 6.6 5.4 4.4 86 0.9 CALM 0 2 0 1 1030.7 1030.8 0.0
02/08:00pm 6.7 3.8 4.4 85 1.0 WSW 9 11 5 6 1030.7 1030.8 0.0
02/07:30pm 6.7 3.3 4.2 84 1.1 WSW 11 13 6 7 1030.7 1030.8 0.0
02/07:00pm 6.8 3.8 4.1 83 1.2 WSW 9 11 5 6 1030.6 1030.7 0.0
02/06:30pm 6.9 3.5 4.0 82 1.2 WSW 11 13 6 7 1030.5 1030.6 0.0
02/06:00pm 7.3 4.3 4.1 80 1.4 SW 9 11 5 6 1030.6 1030.7 0.0
02/05:30pm 8.1 5.2 4.5 78 1.6 SW 9 11 5 6 1030.5 1030.6 0.0
02/05:00pm 8.8 5.9 4.6 75 1.9 S 9 11 5 6 1030.4 1030.5 0.0
02/04:30pm 10.4 6.9 5.6 72 2.2 SSE 13 19 7 10 1030.6 1030.7 0.0
02/04:00pm 10.8 7.3 5.3 69 2.5 S 13 15 7 8 1030.6 1030.7 0.0
02/03:30pm 10.8 8.0 5.3 69 2.5 S 9 13 5 7 1030.6 1030.7 0.0
02/03:00pm 10.9 8.1 5.2 68 2.6 S 9 17 5 9 1030.6 1030.7 0.0
02/02:30pm 11.0 7.8 4.9 66 2.8 SSE 11 15 6 8 1030.6 1030.7 0.0
02/02:00pm 11.2 8.0 4.9 65 2.9 SSE 11 15 6 8 1030.7 1030.8 0.0
02/01:30pm 11.4 8.6 5.3 66 2.8 SE 9 15 5 8 1030.8 1030.9 0.0
02/01:00pm 10.9 7.3 5.0 67 2.7 SSE 13 20 7 11 1031.2 1031.3 0.0
02/12:30pm 11.2 7.7 5.5 68 2.6 SE 13 19 7 10 1031.6 1031.7 0.0
02/12:00pm 10.8 8.0 5.1 68 2.6 SSE 9 13 5 7 1032.0 1032.1 0.0
02/11:30am 10.5 8.1 5.1 69 2.4 S 7 13 4 7 1032.4 1032.5 0.0
02/11:00am 10.4 9.4 5.4 71 2.3 CALM 0 4 0 2 1032.6 1032.7 0.0
02/10:30am 9.8 7.4 5.2 73 2.1 E 7 13 4 7 1032.8 1032.9 0.0
02/10:00am 9.5 6.7 5.3 75 1.9 E 9 15 5 8 1032.7 1032.8 0.0
02/09:30am 10.0 9.1 6.2 77 1.7 CALM 0 6 0 3 1032.6 1032.7 0.0
02/09:00am 8.7 7.7 5.8 82 1.3 CALM 0 0 0 0 1032.5 1032.6 0.2
02/08:30am 8.2 5.9 5.5 83 1.2 NW 7 9 4 5 1032.4 1032.5 0.2
02/08:00am 7.6 5.1 4.9 83 1.2 NNW 7 9 4 5 1032.4 1032.5 0.2
02/07:30am 7.8 5.4 5.1 83 1.2 W 7 11 4 6 1032.4 1032.5 0.2
02/07:00am 7.7 5.4 5.0 83 1.2 WNW 6 7 3 4 1032.3 1032.4 0.2
02/06:30am 7.6 5.7 4.7 82 1.3 WNW 4 9 2 5 1032.1 1032.2 0.2
02/06:00am 7.3 6.1 4.4 82 1.3 CALM 0 0 0 0 1032.0 1032.1 0.2
02/05:30am 7.4 6.2 4.5 82 1.3 CALM 0 0 0 0 1031.9 1032.0 0.2
02/05:00am 7.4 6.2 4.4 81 1.3 CALM 0 0 0 0 1031.9 1032.0 0.2
02/04:30am 7.1 5.8 3.9 80 1.4 CALM 0 0 0 0 1032.0 1032.1 0.2
02/04:00am 7.3 6.0 3.9 79 1.5 CALM 0 0 0 0 1032.2 1032.3 0.2
02/03:30am 7.8 6.5 4.2 78 1.6 CALM 0 0 0 0 1032.4 1032.5 0.2
02/03:00am 7.7 5.2 3.7 76 1.7 ENE 6 7 3 4 1032.4 1032.5 0.2
02/02:30am 8.6 6.1 3.8 72 2.1 N 6 7 3 4 1032.4 1032.5 0.2
02/02:00am 8.6 5.5 3.6 71 2.2 NW 9 13 5 7 1032.4 1032.5 0.2
02/01:30am 8.6 5.5 3.6 71 2.1 N 9 13 5 7 1032.3 1032.4 0.2
02/01:00am 8.6 5.5 3.6 71 2.2 N 9 11 5 6 1032.4 1032.5 0.2
02/12:30am 8.8 6.1 3.6 70 2.2 N 7 9 4 5 1032.5 1032.6 0.2
02/12:00am 8.8 6.2 4.0 72 2.1 N 7 11 4 6 1032.6 1032.7 0.2
 
Date/Time
CST
Temp
°C
App
Temp
°C
Dew
Point
°C
Rel
Hum
%
Delta-T
°C
Wind Press
QNH
hPa
Press
MSL
hPa
Rain since
9am
mm
Dir  Spd
km/h
Gust
km/h
Spd
kts
Gust
kts
01/11:30pm 8.7 7.0 4.1 73 2.0 N 2 7 1 4 1032.8 1032.9 0.2
01/11:00pm 9.0 7.7 4.2 72 2.1 CALM 0 0 0 0 1032.8 1032.9 0.2
01/10:30pm 9.0 6.0 4.2 72 2.1 ENE 9 11 5 6 1032.8 1032.9 0.2
01/10:00pm 9.3 6.3 4.1 70 2.3 ENE 9 13 5 7 1032.9 1033.0 0.2
01/09:30pm 9.6 6.6 4.2 69 2.4 ESE 9 13 5 7 1033.0 1033.1 0.2
01/09:00pm 9.8 7.4 4.2 68 2.5 SE 6 9 3 5 1033.0 1033.1 0.2
01/08:30pm 10.0 7.0 4.2 67 2.5 ESE 9 11 5 6 1032.8 1032.9 0.2
01/08:00pm 10.0 7.0 4.2 67 2.6 SE 9 15 5 8 1032.6 1032.7 0.2
01/07:30pm 10.1 6.8 4.5 68 2.5 SE 11 15 6 8 1032.6 1032.7 0.2
01/07:00pm 10.2 7.3 4.6 68 2.5 SE 9 13 5 7 1032.4 1032.5 0.2
01/06:30pm 10.3 6.5 4.0 65 2.8 SSE 13 17 7 9 1032.2 1032.3 0.2
01/06:00pm 10.3 7.2 3.6 63 2.9 SSE 9 15 5 8 1032.1 1032.2 0.2
01/05:30pm 10.3 6.5 4.0 65 2.8 SE 13 15 7 8 1031.8 1031.9 0.2
01/05:00pm 10.5 6.8 4.2 65 2.8 SE 13 19 7 10 1031.6 1031.7 0.2
01/04:30pm 10.9 7.1 3.9 62 3.1 SSE 13 17 7 9 1031.6 1031.7 0.2
01/04:00pm 11.2 7.1 4.2 62 3.1 SSE 15 22 8 12 1031.6 1031.7 0.2
01/03:30pm 11.7 6.9 4.4 61 3.3 SSE 19 24 10 13 1031.4 1031.5 0.2
01/03:00pm 11.8 7.4 4.8 62 3.2 S 17 24 9 13 1031.5 1031.6 0.2
01/02:30pm 12.0 7.2 4.7 61 3.3 S 19 24 10 13 1031.4 1031.5 0.2
01/02:00pm 12.0 8.4 5.0 62 3.2 SSE 13 17 7 9 1031.6 1031.7 0.2
01/01:30pm 11.9 8.4 5.3 64 3.0 SSE 13 17 7 9 1031.9 1032.0 0.2
01/01:00pm 11.9 9.1 5.1 63 3.1 SSE 9 13 5 7 1032.2 1032.3 0.2
01/12:30pm 11.7 7.7 5.1 64 3.0 ESE 15 20 8 11 1032.5 1032.6 0.2
01/12:00pm 11.6 7.7 5.3 65 2.9 SE 15 20 8 11 1032.7 1032.8 0.2
01/11:30am 11.7 8.2 5.6 66 2.8 E 13 15 7 8 1033.0 1033.1 0.2
01/11:00am 11.8 9.6 6.3 69 2.6 SE 7 13 4 7 1033.1 1033.2 0.2
01/10:30am 11.3 10.6 6.8 74 2.1 CALM 0 7 0 4 1033.2 1033.3 0.0
01/10:00am 10.9 10.3 7.4 79 1.7 CALM 0 0 0 0 1033.3 1033.4 0.0
01/09:30am 10.7 10.2 7.9 83 1.3 CALM 0 0 0 0 1033.0 1033.1 0.0
01/09:00am 10.3 9.8 7.9 85 1.1 CALM 0 6 0 3 1032.8 1032.9 0.2
01/08:30am 10.0 8.4 7.9 87 1.0 SW 6 6 3 3 1032.6 1032.7 0.2
01/08:00am 9.6 7.9 7.5 87 1.0 SW 6 7 3 4 1032.4 1032.5 0.2
01/07:30am 9.5 7.8 7.4 87 1.0 WSW 6 9 3 5 1032.1 1032.2 0.2
01/07:00am 9.4 7.1 7.3 87 1.0 NW 9 11 5 6 1031.8 1031.9 0.2
01/06:30am 9.2 8.5 7.0 86 1.0 CALM 0 0 0 0 1031.6 1031.7 0.2
01/06:00am 9.7 8.4 7.5 86 1.0 SE 4 9 2 5 1031.6 1031.7 0.2
01/05:30am 9.7 9.1 7.5 86 1.0 CALM 0 0 0 0 1031.2 1031.3 0.2
01/05:00am 9.7 9.1 7.5 86 1.0 CALM 0 0 0 0 1031.1 1031.2 0.2
01/04:30am 9.7 8.0 7.6 87 1.0 N 6 7 3 4 1030.9 1031.0 0.2
01/04:00am 9.8 8.1 7.7 87 1.0 NE 6 7 3 4 1030.8 1030.9 0.2
01/03:30am 9.9 8.1 7.8 87 1.0 ENE 7 11 4 6 1030.8 1030.9 0.2
01/03:00am 9.9 8.3 8.0 88 0.9 E 6 9 3 5 1030.9 1031.0 0.2
01/02:30am 10.0 8.5 8.3 89 0.8 ESE 6 9 3 5 1030.9 1031.0 0.2
01/02:00am 10.3 8.4 8.9 91 0.7 SE 9 13 5 7 1030.8 1030.9 0.2
01/01:30am 10.4 8.6 9.3 93 0.5 SE 9 15 5 8 1030.4 1030.5 0.2
01/01:00am 10.3 8.1 9.4 94 0.4 SSE 11 15 6 8 1030.3 1030.4 0.2
01/12:30am 10.1 8.2 9.2 94 0.4 S 9 13 5 7 1030.3 1030.4 0.2
01/12:00am 10.2 8.3 9.1 93 0.5 SSW 9 11 5 6 1030.5 1030.6 0.2
 
Date/Time
CST
Temp
°C
App
Temp
°C
Dew
Point
°C
Rel
Hum
%
Delta-T
°C
Wind Press
QNH
hPa
Press
MSL
hPa
Rain since
9am
mm
Dir  Spd
km/h
Gust
km/h
Spd
kts
Gust
kts
30/11:30pm 10.3 8.1 9.2 93 0.5 SSW 11 15 6 8 1030.5 1030.6 0.2
30/11:00pm 10.5 8.2 9.1 91 0.7 SW 11 15 6 8 1030.3 1030.4 0.2
30/10:30pm 10.3 8.3 8.6 89 0.8 SW 9 13 5 7 1030.0 1030.1 0.2

Latest Capital City Observations: Canberra | Sydney | Melbourne | Brisbane | Adelaide | Perth | Hobart | Darwin

Other formats

Comma delimited format used in spreadsheet applications
http://www.bom.gov.au/fwo/IDS60901/IDS60901.94814.axf

JavaScript Object Notation format (JSON) in row-major order
http://www.bom.gov.au/fwo/IDS60901/IDS60901.94814.json

Data quality

Most of these data are generated automatically and are frequently updated. Quality checks on data are not normally performed. It is possible for incorrect values to appear. Refer to information at About Latest Weather Observations and please check the disclaimer before using these data.